sensor_id;sensor_type;location;lat;lon;timestamp;pressure;altitude;pressure_sealevel;temperature;humidity
28448;BME280;15675;52.870;-1.416;2023-02-19T00:01:40;101519.69;;;10.62;100.00
28448;BME280;15675;52.870;-1.416;2023-02-19T00:04:10;101514.50;;;10.62;100.00
28448;BME280;15675;52.870;-1.416;2023-02-19T00:06:37;101515.47;;;10.69;100.00
28448;BME280;15675;52.870;-1.416;2023-02-19T00:09:03;101519.13;;;10.82;100.00
28448;BME280;15675;52.870;-1.416;2023-02-19T00:11:31;101515.09;;;10.47;100.00
28448;BME280;15675;52.870;-1.416;2023-02-19T00:13:58;101494.03;;;10.30;100.00
28448;BME280;15675;52.870;-1.416;2023-02-19T00:16:29;101528.06;;;10.47;100.00
28448;BME280;15675;52.870;-1.416;2023-02-19T00:18:57;101522.13;;;10.53;100.00
28448;BME280;15675;52.870;-1.416;2023-02-19T00:21:24;101533.31;;;10.49;100.00
28448;BME280;15675;52.870;-1.416;2023-02-19T00:23:51;101514.13;;;10.39;100.00
28448;BME280;15675;52.870;-1.416;2023-02-19T00:26:17;101526.59;;;10.14;100.00
28448;BME280;15675;52.870;-1.416;2023-02-19T00:28:44;101532.78;;;10.21;100.00
28448;BME280;15675;52.870;-1.416;2023-02-19T00:31:23;101541.94;;;10.00;100.00
28448;BME280;15675;52.870;-1.416;2023-02-19T00:33:54;101553.03;;;9.93;100.00
28448;BME280;15675;52.870;-1.416;2023-02-19T00:36:20;101534.94;;;9.96;100.00
28448;BME280;15675;52.870;-1.416;2023-02-19T00:38:46;101526.16;;;9.90;100.00
28448;BME280;15675;52.870;-1.416;2023-02-19T00:41:13;101532.56;;;10.09;100.00
28448;BME280;15675;52.870;-1.416;2023-02-19T00:46:19;101533.69;;;9.77;100.00
28448;BME280;15675;52.870;-1.416;2023-02-19T00:48:45;101524.03;;;9.70;100.00
28448;BME280;15675;52.870;-1.416;2023-02-19T00:51:11;101532.72;;;9.71;100.00
28448;BME280;15675;52.870;-1.416;2023-02-19T00:53:37;101545.50;;;9.63;100.00
28448;BME280;15675;52.870;-1.416;2023-02-19T00:56:03;101497.19;;;9.66;100.00
28448;BME280;15675;52.870;-1.416;2023-02-19T00:58:29;101534.63;;;9.81;100.00
28448;BME280;15675;52.870;-1.416;2023-02-19T01:00:54;101540.53;;;9.74;100.00
28448;BME280;15675;52.870;-1.416;2023-02-19T01:03:20;101518.28;;;9.85;100.00
28448;BME280;15675;52.870;-1.416;2023-02-19T01:05:49;101537.38;;;9.90;100.00
28448;BME280;15675;52.870;-1.416;2023-02-19T01:08:15;101527.56;;;9.72;100.00
28448;BME280;15675;52.870;-1.416;2023-02-19T01:10:41;101534.44;;;9.72;100.00
28448;BME280;15675;52.870;-1.416;2023-02-19T01:13:07;101530.84;;;9.63;100.00
28448;BME280;15675;52.870;-1.416;2023-02-19T01:15:33;101544.53;;;9.58;100.00
28448;BME280;15675;52.870;-1.416;2023-02-19T01:17:59;101538.66;;;9.65;100.00
28448;BME280;15675;52.870;-1.416;2023-02-19T01:20:25;101541.84;;;9.53;100.00
28448;BME280;15675;52.870;-1.416;2023-02-19T01:22:51;101533.31;;;9.59;100.00
28448;BME280;15675;52.870;-1.416;2023-02-19T01:25:17;101558.28;;;9.54;100.00
28448;BME280;15675;52.870;-1.416;2023-02-19T01:27:43;101543.59;;;9.54;100.00
28448;BME280;15675;52.870;-1.416;2023-02-19T01:30:09;101547.94;;;9.55;100.00
28448;BME280;15675;52.870;-1.416;2023-02-19T01:32:35;101561.13;;;9.67;100.00
28448;BME280;15675;52.870;-1.416;2023-02-19T01:35:00;101581.13;;;9.32;100.00
28448;BME280;15675;52.870;-1.416;2023-02-19T01:37:26;101604.09;;;9.17;100.00
28448;BME280;15675;52.870;-1.416;2023-02-19T01:39:51;101596.88;;;9.05;100.00
28448;BME280;15675;52.870;-1.416;2023-02-19T01:42:17;101605.59;;;9.07;100.00
28448;BME280;15675;52.870;-1.416;2023-02-19T01:47:12;101590.97;;;9.10;100.00
28448;BME280;15675;52.870;-1.416;2023-02-19T01:49:43;101606.53;;;9.10;100.00
28448;BME280;15675;52.870;-1.416;2023-02-19T01:52:21;101596.53;;;9.26;100.00
28448;BME280;15675;52.870;-1.416;2023-02-19T01:54:50;101617.00;;;9.15;100.00
28448;BME280;15675;52.870;-1.416;2023-02-19T01:57:25;101618.91;;;9.22;100.00
28448;BME280;15675;52.870;-1.416;2023-02-19T01:59:56;101608.59;;;9.25;100.00
28448;BME280;15675;52.870;-1.416;2023-02-19T02:02:23;101622.25;;;9.18;100.00
28448;BME280;15675;52.870;-1.416;2023-02-19T02:04:51;101643.88;;;9.20;100.00
28448;BME280;15675;52.870;-1.416;2023-02-19T02:07:17;101632.84;;;9.29;100.00
28448;BME280;15675;52.870;-1.416;2023-02-19T02:10:02;101631.09;;;9.26;100.00
28448;BME280;15675;52.870;-1.416;2023-02-19T02:12:47;101631.22;;;9.32;100.00
28448;BME280;15675;52.870;-1.416;2023-02-19T02:15:14;101628.78;;;9.39;100.00
28448;BME280;15675;52.870;-1.416;2023-02-19T02:17:55;101614.88;;;9.35;100.00
28448;BME280;15675;52.870;-1.416;2023-02-19T02:20:33;101607.16;;;9.37;100.00
28448;BME280;15675;52.870;-1.416;2023-02-19T02:23:21;101612.34;;;9.38;100.00
28448;BME280;15675;52.870;-1.416;2023-02-19T02:26:11;101613.19;;;9.37;100.00
28448;BME280;15675;52.870;-1.416;2023-02-19T02:31:13;101626.22;;;9.40;100.00
28448;BME280;15675;52.870;-1.416;2023-02-19T02:36:17;101626.78;;;9.65;100.00
28448;BME280;15675;52.870;-1.416;2023-02-19T02:38:45;101647.09;;;9.46;100.00
28448;BME280;15675;52.870;-1.416;2023-02-19T02:41:13;101648.75;;;9.44;100.00
28448;BME280;15675;52.870;-1.416;2023-02-19T02:43:40;101638.56;;;9.50;100.00
28448;BME280;15675;52.870;-1.416;2023-02-19T02:46:10;101651.72;;;9.60;100.00
28448;BME280;15675;52.870;-1.416;2023-02-19T02:48:48;101671.16;;;9.41;100.00
28448;BME280;15675;52.870;-1.416;2023-02-19T02:51:43;101684.13;;;9.41;100.00
28448;BME280;15675;52.870;-1.416;2023-02-19T02:54:15;101682.72;;;9.55;100.00
28448;BME280;15675;52.870;-1.416;2023-02-19T02:57:01;101686.22;;;9.57;100.00
28448;BME280;15675;52.870;-1.416;2023-02-19T02:59:30;101693.41;;;9.69;100.00
28448;BME280;15675;52.870;-1.416;2023-02-19T03:02:04;101695.16;;;9.70;100.00
28448;BME280;15675;52.870;-1.416;2023-02-19T03:07:58;101702.59;;;9.56;100.00
28448;BME280;15675;52.870;-1.416;2023-02-19T03:13:04;101713.56;;;9.44;100.00
28448;BME280;15675;52.870;-1.416;2023-02-19T03:15:57;101747.22;;;9.08;100.00
28448;BME280;15675;52.870;-1.416;2023-02-19T03:18:47;101710.94;;;9.08;100.00
28448;BME280;15675;52.870;-1.416;2023-02-19T03:21:34;101745.75;;;8.86;100.00
28448;BME280;15675;52.870;-1.416;2023-02-19T03:24:02;101729.50;;;8.91;100.00
28448;BME280;15675;52.870;-1.416;2023-02-19T03:26:50;101764.06;;;8.61;100.00
28448;BME280;15675;52.870;-1.416;2023-02-19T03:29:20;101733.88;;;8.62;100.00
28448;BME280;15675;52.870;-1.416;2023-02-19T03:31:51;101756.41;;;8.36;100.00
28448;BME280;15675;52.870;-1.416;2023-02-19T03:34:25;101724.03;;;8.49;100.00
28448;BME280;15675;52.870;-1.416;2023-02-19T03:36:57;101762.31;;;8.32;100.00
28448;BME280;15675;52.870;-1.416;2023-02-19T03:39:25;101752.03;;;8.35;100.00
28448;BME280;15675;52.870;-1.416;2023-02-19T03:58:13;101799.19;;;7.97;100.00
28448;BME280;15675;52.870;-1.416;2023-02-19T04:00:52;101774.25;;;7.99;100.00
28448;BME280;15675;52.870;-1.416;2023-02-19T04:03:43;101765.53;;;7.95;100.00
28448;BME280;15675;52.870;-1.416;2023-02-19T04:06:28;101780.91;;;7.91;100.00
28448;BME280;15675;52.870;-1.416;2023-02-19T04:08:57;101776.75;;;7.96;100.00
28448;BME280;15675;52.870;-1.416;2023-02-19T04:11:25;101778.03;;;7.54;100.00
28448;BME280;15675;52.870;-1.416;2023-02-19T04:14:14;101789.59;;;7.66;100.00
28448;BME280;15675;52.870;-1.416;2023-02-19T04:16:44;101800.66;;;7.62;100.00
28448;BME280;15675;52.870;-1.416;2023-02-19T04:19:15;101781.28;;;7.49;100.00
28448;BME280;15675;52.870;-1.416;2023-02-19T04:21:44;101793.44;;;7.51;100.00
28448;BME280;15675;52.870;-1.416;2023-02-19T04:24:15;101779.50;;;7.48;100.00
28448;BME280;15675;52.870;-1.416;2023-02-19T04:26:45;101804.72;;;7.55;100.00
28448;BME280;15675;52.870;-1.416;2023-02-19T04:29:11;101808.22;;;7.55;100.00
28448;BME280;15675;52.870;-1.416;2023-02-19T04:31:37;101821.84;;;7.77;100.00
28448;BME280;15675;52.870;-1.416;2023-02-19T04:34:03;101812.31;;;7.76;100.00
28448;BME280;15675;52.870;-1.416;2023-02-19T04:36:31;101819.94;;;7.71;100.00
28448;BME280;15675;52.870;-1.416;2023-02-19T04:38:58;101821.19;;;7.84;100.00
28448;BME280;15675;52.870;-1.416;2023-02-19T04:41:23;101832.75;;;7.68;100.00
28448;BME280;15675;52.870;-1.416;2023-02-19T04:43:49;101834.47;;;7.69;100.00
28448;BME280;15675;52.870;-1.416;2023-02-19T04:46:14;101853.41;;;7.94;100.00
28448;BME280;15675;52.870;-1.416;2023-02-19T04:48:40;101852.59;;;7.97;100.00
28448;BME280;15675;52.870;-1.416;2023-02-19T04:51:08;101861.97;;;7.93;100.00
28448;BME280;15675;52.870;-1.416;2023-02-19T04:53:35;101870.09;;;8.04;100.00
28448;BME280;15675;52.870;-1.416;2023-02-19T04:56:13;101869.94;;;8.26;100.00
28448;BME280;15675;52.870;-1.416;2023-02-19T04:58:39;101888.38;;;8.64;100.00
28448;BME280;15675;52.870;-1.416;2023-02-19T05:01:05;101898.69;;;8.08;100.00
28448;BME280;15675;52.870;-1.416;2023-02-19T05:03:31;101911.25;;;7.98;100.00
28448;BME280;15675;52.870;-1.416;2023-02-19T05:06:02;101908.13;;;8.08;100.00
28448;BME280;15675;52.870;-1.416;2023-02-19T05:08:28;101911.72;;;8.11;100.00
28448;BME280;15675;52.870;-1.416;2023-02-19T05:10:57;101924.59;;;7.84;100.00
28448;BME280;15675;52.870;-1.416;2023-02-19T05:13:23;101934.53;;;7.98;100.00
28448;BME280;15675;52.870;-1.416;2023-02-19T05:16:02;101926.03;;;8.02;100.00
28448;BME280;15675;52.870;-1.416;2023-02-19T05:18:29;101929.81;;;7.86;100.00
28448;BME280;15675;52.870;-1.416;2023-02-19T05:20:56;101926.19;;;7.81;100.00
28448;BME280;15675;52.870;-1.416;2023-02-19T05:23:23;101931.63;;;7.63;100.00
28448;BME280;15675;52.870;-1.416;2023-02-19T05:25:49;101920.56;;;7.67;100.00
28448;BME280;15675;52.870;-1.416;2023-02-19T05:28:14;101922.47;;;7.72;100.00
28448;BME280;15675;52.870;-1.416;2023-02-19T05:30:46;101922.94;;;7.36;100.00
28448;BME280;15675;52.870;-1.416;2023-02-19T05:33:12;101926.06;;;7.52;100.00
28448;BME280;15675;52.870;-1.416;2023-02-19T05:35:40;101916.44;;;7.48;100.00
28448;BME280;15675;52.870;-1.416;2023-02-19T05:38:06;101916.19;;;7.40;100.00
28448;BME280;15675;52.870;-1.416;2023-02-19T05:40:33;101926.13;;;7.29;100.00
28448;BME280;15675;52.870;-1.416;2023-02-19T05:42:58;101929.16;;;7.41;100.00
28448;BME280;15675;52.870;-1.416;2023-02-19T05:45:24;101925.50;;;7.36;100.00
28448;BME280;15675;52.870;-1.416;2023-02-19T05:47:50;101922.38;;;7.45;100.00
28448;BME280;15675;52.870;-1.416;2023-02-19T05:50:16;101934.47;;;7.46;100.00
28448;BME280;15675;52.870;-1.416;2023-02-19T05:52:41;101932.66;;;7.43;100.00
28448;BME280;15675;52.870;-1.416;2023-02-19T05:55:10;101941.00;;;7.60;100.00
28448;BME280;15675;52.870;-1.416;2023-02-19T05:57:43;101936.97;;;7.43;100.00
28448;BME280;15675;52.870;-1.416;2023-02-19T06:00:11;101933.66;;;7.47;100.00
28448;BME280;15675;52.870;-1.416;2023-02-19T06:02:37;101941.47;;;7.49;100.00
28448;BME280;15675;52.870;-1.416;2023-02-19T06:05:03;101954.50;;;7.52;100.00
28448;BME280;15675;52.870;-1.416;2023-02-19T06:07:30;101950.53;;;7.62;100.00
28448;BME280;15675;52.870;-1.416;2023-02-19T06:09:56;101959.38;;;7.68;100.00
28448;BME280;15675;52.870;-1.416;2023-02-19T06:12:21;101960.03;;;7.38;100.00
28448;BME280;15675;52.870;-1.416;2023-02-19T06:14:47;101948.88;;;7.64;100.00
28448;BME280;15675;52.870;-1.416;2023-02-19T06:17:14;101950.16;;;7.76;100.00
28448;BME280;15675;52.870;-1.416;2023-02-19T06:19:39;101961.03;;;7.66;100.00
28448;BME280;15675;52.870;-1.416;2023-02-19T06:22:05;101963.50;;;7.63;100.00
28448;BME280;15675;52.870;-1.416;2023-02-19T06:24:31;101959.50;;;7.47;100.00
28448;BME280;15675;52.870;-1.416;2023-02-19T06:26:57;101958.00;;;7.54;100.00
28448;BME280;15675;52.870;-1.416;2023-02-19T06:29:23;101969.06;;;7.50;100.00
28448;BME280;15675;52.870;-1.416;2023-02-19T06:31:49;101963.50;;;7.63;100.00
28448;BME280;15675;52.870;-1.416;2023-02-19T06:34:15;101958.34;;;7.63;100.00
28448;BME280;15675;52.870;-1.416;2023-02-19T06:36:41;101954.75;;;7.59;100.00
28448;BME280;15675;52.870;-1.416;2023-02-19T06:39:08;101943.88;;;7.68;100.00
28448;BME280;15675;52.870;-1.416;2023-02-19T06:41:34;101955.59;;;7.58;100.00
28448;BME280;15675;52.870;-1.416;2023-02-19T06:44:00;101969.78;;;7.70;100.00
28448;BME280;15675;52.870;-1.416;2023-02-19T06:46:25;101987.22;;;7.75;100.00
28448;BME280;15675;52.870;-1.416;2023-02-19T06:48:51;102001.66;;;7.70;100.00
28448;BME280;15675;52.870;-1.416;2023-02-19T06:51:18;102010.22;;;7.69;100.00
28448;BME280;15675;52.870;-1.416;2023-02-19T06:53:47;102007.03;;;8.01;100.00
28448;BME280;15675;52.870;-1.416;2023-02-19T06:58:58;102022.38;;;7.72;100.00
28448;BME280;15675;52.870;-1.416;2023-02-19T07:01:25;102029.97;;;8.16;100.00
28448;BME280;15675;52.870;-1.416;2023-02-19T07:03:51;102040.31;;;8.67;100.00
28448;BME280;15675;52.870;-1.416;2023-02-19T07:06:19;102039.59;;;8.20;100.00
28448;BME280;15675;52.870;-1.416;2023-02-19T07:08:44;102032.09;;;8.53;100.00
28448;BME280;15675;52.870;-1.416;2023-02-19T07:11:10;102029.56;;;9.09;100.00
28448;BME280;15675;52.870;-1.416;2023-02-19T07:13:35;102034.03;;;8.86;100.00
28448;BME280;15675;52.870;-1.416;2023-02-19T07:16:07;102065.22;;;8.89;100.00
28448;BME280;15675;52.870;-1.416;2023-02-19T07:18:35;102067.44;;;9.06;100.00
28448;BME280;15675;52.870;-1.416;2023-02-19T07:21:19;102072.69;;;9.65;99.49
28448;BME280;15675;52.870;-1.416;2023-02-19T07:23:45;102062.06;;;9.57;97.56
28448;BME280;15675;52.870;-1.416;2023-02-19T07:26:12;102060.59;;;9.65;94.33
28448;BME280;15675;52.870;-1.416;2023-02-19T07:28:42;102052.28;;;9.18;94.98
28448;BME280;15675;52.870;-1.416;2023-02-19T07:31:09;102044.19;;;8.80;97.24
28448;BME280;15675;52.870;-1.416;2023-02-19T07:33:35;102052.72;;;8.77;97.97
28448;BME280;15675;52.870;-1.416;2023-02-19T07:36:00;102049.06;;;8.45;100.00
28448;BME280;15675;52.870;-1.416;2023-02-19T07:38:26;102042.94;;;8.17;100.00
28448;BME280;15675;52.870;-1.416;2023-02-19T07:40:53;102047.47;;;7.99;100.00
28448;BME280;15675;52.870;-1.416;2023-02-19T07:43:20;102040.88;;;8.07;100.00
28448;BME280;15675;52.870;-1.416;2023-02-19T07:45:46;102032.88;;;8.01;100.00
28448;BME280;15675;52.870;-1.416;2023-02-19T07:48:11;102029.56;;;8.05;100.00
28448;BME280;15675;52.870;-1.416;2023-02-19T07:50:37;102028.56;;;8.00;100.00
28448;BME280;15675;52.870;-1.416;2023-02-19T07:53:02;102020.50;;;7.92;100.00
28448;BME280;15675;52.870;-1.416;2023-02-19T07:55:30;102032.56;;;7.91;100.00
28448;BME280;15675;52.870;-1.416;2023-02-19T07:57:57;102034.94;;;7.85;100.00
28448;BME280;15675;52.870;-1.416;2023-02-19T08:00:23;102032.38;;;7.85;100.00
28448;BME280;15675;52.870;-1.416;2023-02-19T08:02:51;102029.88;;;7.88;100.00
28448;BME280;15675;52.870;-1.416;2023-02-19T08:05:39;102039.97;;;8.06;100.00
28448;BME280;15675;52.870;-1.416;2023-02-19T08:08:09;102048.19;;;7.94;100.00
28448;BME280;15675;52.870;-1.416;2023-02-19T08:10:35;102067.91;;;7.91;100.00
28448;BME280;15675;52.870;-1.416;2023-02-19T08:13:39;102072.44;;;8.22;100.00
28448;BME280;15675;52.870;-1.416;2023-02-19T08:18:32;102083.44;;;8.41;100.00
28448;BME280;15675;52.870;-1.416;2023-02-19T08:20:59;102085.44;;;8.48;100.00
28448;BME280;15675;52.870;-1.416;2023-02-19T08:23:26;102092.34;;;8.49;100.00
28448;BME280;15675;52.870;-1.416;2023-02-19T08:25:56;102104.25;;;8.44;100.00
28448;BME280;15675;52.870;-1.416;2023-02-19T08:28:22;102104.03;;;8.63;100.00
28448;BME280;15675;52.870;-1.416;2023-02-19T08:30:48;102109.00;;;8.83;100.00
28448;BME280;15675;52.870;-1.416;2023-02-19T08:33:18;102124.03;;;8.68;100.00
28448;BME280;15675;52.870;-1.416;2023-02-19T08:35:45;102125.16;;;9.02;100.00
28448;BME280;15675;52.870;-1.416;2023-02-19T08:38:12;102136.69;;;8.84;100.00
28448;BME280;15675;52.870;-1.416;2023-02-19T08:40:39;102140.13;;;8.85;100.00
28448;BME280;15675;52.870;-1.416;2023-02-19T08:43:07;102131.59;;;8.61;100.00
28448;BME280;15675;52.870;-1.416;2023-02-19T08:45:33;102123.16;;;8.43;100.00
28448;BME280;15675;52.870;-1.416;2023-02-19T08:47:59;102124.25;;;8.48;100.00
28448;BME280;15675;52.870;-1.416;2023-02-19T08:50:25;102121.06;;;8.55;100.00
28448;BME280;15675;52.870;-1.416;2023-02-19T08:52:51;102110.84;;;8.86;100.00
28448;BME280;15675;52.870;-1.416;2023-02-19T08:55:16;102100.66;;;8.92;100.00
28448;BME280;15675;52.870;-1.416;2023-02-19T08:57:42;102087.53;;;8.86;100.00
28448;BME280;15675;52.870;-1.416;2023-02-19T09:00:08;102095.56;;;8.95;100.00
28448;BME280;15675;52.870;-1.416;2023-02-19T09:02:34;102079.72;;;8.84;100.00
28448;BME280;15675;52.870;-1.416;2023-02-19T09:05:00;102112.91;;;8.70;100.00
28448;BME280;15675;52.870;-1.416;2023-02-19T09:07:26;102113.06;;;8.75;100.00
28448;BME280;15675;52.870;-1.416;2023-02-19T09:09:52;102124.22;;;8.72;100.00
28448;BME280;15675;52.870;-1.416;2023-02-19T09:12:18;102110.88;;;8.87;100.00
28448;BME280;15675;52.870;-1.416;2023-02-19T09:14:43;102120.00;;;8.76;100.00
28448;BME280;15675;52.870;-1.416;2023-02-19T09:17:09;102137.25;;;8.75;100.00
28448;BME280;15675;52.870;-1.416;2023-02-19T09:19:35;102133.19;;;8.58;100.00
28448;BME280;15675;52.870;-1.416;2023-02-19T09:22:02;102139.41;;;8.89;100.00
28448;BME280;15675;52.870;-1.416;2023-02-19T09:24:28;102133.13;;;8.56;100.00
28448;BME280;15675;52.870;-1.416;2023-02-19T09:26:54;102126.31;;;8.84;100.00
28448;BME280;15675;52.870;-1.416;2023-02-19T09:29:21;102141.78;;;9.08;100.00
28448;BME280;15675;52.870;-1.416;2023-02-19T09:31:48;102154.63;;;9.05;100.00
28448;BME280;15675;52.870;-1.416;2023-02-19T09:34:14;102158.44;;;8.89;100.00
28448;BME280;15675;52.870;-1.416;2023-02-19T09:36:40;102179.25;;;8.92;100.00
28448;BME280;15675;52.870;-1.416;2023-02-19T09:39:07;102170.81;;;8.98;100.00
28448;BME280;15675;52.870;-1.416;2023-02-19T09:41:47;102173.53;;;9.03;100.00
28448;BME280;15675;52.870;-1.416;2023-02-19T09:44:33;102167.13;;;8.66;100.00
28448;BME280;15675;52.870;-1.416;2023-02-19T09:47:00;102164.16;;;8.80;100.00
28448;BME280;15675;52.870;-1.416;2023-02-19T09:49:41;102167.63;;;9.07;100.00
28448;BME280;15675;52.870;-1.416;2023-02-19T09:55:03;102164.28;;;9.09;100.00
28448;BME280;15675;52.870;-1.416;2023-02-19T09:57:35;102166.34;;;8.94;100.00
28448;BME280;15675;52.870;-1.416;2023-02-19T10:02:44;102149.28;;;9.01;100.00
28448;BME280;15675;52.870;-1.416;2023-02-19T10:05:15;102158.53;;;8.92;100.00
28448;BME280;15675;52.870;-1.416;2023-02-19T10:07:52;102151.22;;;9.33;100.00
28448;BME280;15675;52.870;-1.416;2023-02-19T10:10:26;102134.66;;;9.28;100.00
28448;BME280;15675;52.870;-1.416;2023-02-19T10:12:55;102134.25;;;8.63;100.00
28448;BME280;15675;52.870;-1.416;2023-02-19T10:15:32;102135.97;;;9.15;100.00
28448;BME280;15675;52.870;-1.416;2023-02-19T10:18:01;102142.38;;;9.00;100.00
28448;BME280;15675;52.870;-1.416;2023-02-19T10:20:27;102155.03;;;8.92;100.00
28448;BME280;15675;52.870;-1.416;2023-02-19T10:23:02;102164.78;;;8.99;100.00
28448;BME280;15675;52.870;-1.416;2023-02-19T10:25:29;102154.59;;;9.31;100.00
28448;BME280;15675;52.870;-1.416;2023-02-19T10:28:00;102157.03;;;9.54;100.00
28448;BME280;15675;52.870;-1.416;2023-02-19T10:30:30;102152.84;;;9.59;100.00
28448;BME280;15675;52.870;-1.416;2023-02-19T10:33:01;102153.06;;;9.38;100.00
28448;BME280;15675;52.870;-1.416;2023-02-19T10:35:28;102150.63;;;9.42;100.00
28448;BME280;15675;52.870;-1.416;2023-02-19T10:37:55;102159.19;;;9.12;100.00
28448;BME280;15675;52.870;-1.416;2023-02-19T10:40:23;102164.09;;;8.79;100.00
28448;BME280;15675;52.870;-1.416;2023-02-19T10:42:56;102164.28;;;8.84;100.00
28448;BME280;15675;52.870;-1.416;2023-02-19T10:45:33;102161.84;;;8.88;100.00
28448;BME280;15675;52.870;-1.416;2023-02-19T10:48:05;102163.13;;;9.01;100.00
28448;BME280;15675;52.870;-1.416;2023-02-19T10:50:35;102147.81;;;9.36;100.00
28448;BME280;15675;52.870;-1.416;2023-02-19T10:53:21;102158.88;;;9.30;100.00
28448;BME280;15675;52.870;-1.416;2023-02-19T10:56:05;102143.06;;;9.50;100.00
28448;BME280;15675;52.870;-1.416;2023-02-19T10:58:31;102140.84;;;9.33;100.00
28448;BME280;15675;52.870;-1.416;2023-02-19T11:03:42;102163.59;;;9.15;100.00
28448;BME280;15675;52.870;-1.416;2023-02-19T11:06:09;102174.22;;;8.97;100.00
28448;BME280;15675;52.870;-1.416;2023-02-19T11:08:55;102165.50;;;9.21;100.00
28448;BME280;15675;52.870;-1.416;2023-02-19T11:13:53;102166.72;;;9.59;100.00
28448;BME280;15675;52.870;-1.416;2023-02-19T11:16:21;102171.78;;;9.56;100.00
28448;BME280;15675;52.870;-1.416;2023-02-19T11:18:55;102158.09;;;9.33;100.00
28448;BME280;15675;52.870;-1.416;2023-02-19T11:21:29;102155.66;;;9.38;100.00
28448;BME280;15675;52.870;-1.416;2023-02-19T11:24:01;102148.22;;;9.48;100.00
28448;BME280;15675;52.870;-1.416;2023-02-19T11:26:32;102148.81;;;9.68;100.00
28448;BME280;15675;52.870;-1.416;2023-02-19T11:29:15;102141.03;;;9.68;100.00
28448;BME280;15675;52.870;-1.416;2023-02-19T11:31:44;102148.13;;;10.05;100.00
28448;BME280;15675;52.870;-1.416;2023-02-19T11:36:39;102146.59;;;10.11;100.00
28448;BME280;15675;52.870;-1.416;2023-02-19T11:55:36;102153.13;;;9.97;100.00
28448;BME280;15675;52.870;-1.416;2023-02-19T12:03:48;102147.06;;;9.96;100.00
28448;BME280;15675;52.870;-1.416;2023-02-19T12:13:02;102151.16;;;10.20;99.95
28448;BME280;15675;52.870;-1.416;2023-02-19T12:21:24;102117.28;;;10.46;100.00
28448;BME280;15675;52.870;-1.416;2023-02-19T12:27:08;102124.91;;;10.40;100.00
28448;BME280;15675;52.870;-1.416;2023-02-19T12:29:48;102126.53;;;10.36;100.00
28448;BME280;15675;52.870;-1.416;2023-02-19T12:32:33;102109.94;;;10.63;99.53
28448;BME280;15675;52.870;-1.416;2023-02-19T12:37:55;102106.06;;;10.80;94.57
28448;BME280;15675;52.870;-1.416;2023-02-19T12:43:08;102100.41;;;10.98;91.41
28448;BME280;15675;52.870;-1.416;2023-02-19T12:45:44;102075.53;;;10.71;89.32
28448;BME280;15675;52.870;-1.416;2023-02-19T12:50:45;102074.50;;;11.01;87.65
28448;BME280;15675;52.870;-1.416;2023-02-19T12:53:33;102075.94;;;10.88;86.60
28448;BME280;15675;52.870;-1.416;2023-02-19T12:56:04;102074.03;;;11.18;86.53
28448;BME280;15675;52.870;-1.416;2023-02-19T12:58:45;102081.63;;;11.50;86.88
28448;BME280;15675;52.870;-1.416;2023-02-19T13:01:17;102083.50;;;11.16;84.89
28448;BME280;15675;52.870;-1.416;2023-02-19T13:04:11;102068.19;;;11.28;85.76
28448;BME280;15675;52.870;-1.416;2023-02-19T13:06:45;102068.25;;;11.31;85.25
28448;BME280;15675;52.870;-1.416;2023-02-19T13:09:38;102066.84;;;11.06;85.78
28448;BME280;15675;52.870;-1.416;2023-02-19T13:14:59;102081.03;;;11.60;86.53
28448;BME280;15675;52.870;-1.416;2023-02-19T13:17:36;102082.75;;;11.21;84.59
28448;BME280;15675;52.870;-1.416;2023-02-19T13:22:45;102071.09;;;11.42;85.75
28448;BME280;15675;52.870;-1.416;2023-02-19T13:25:49;102064.09;;;11.81;85.47
28448;BME280;15675;52.870;-1.416;2023-02-19T13:37:21;102053.88;;;11.47;84.31
28448;BME280;15675;52.870;-1.416;2023-02-19T13:39:50;102057.94;;;11.77;84.13
28448;BME280;15675;52.870;-1.416;2023-02-19T13:42:24;102056.78;;;11.63;83.63
28448;BME280;15675;52.870;-1.416;2023-02-19T13:44:50;102054.19;;;11.64;83.74
28448;BME280;15675;52.870;-1.416;2023-02-19T13:50:30;102022.88;;;12.01;84.53
28448;BME280;15675;52.870;-1.416;2023-02-19T13:52:58;102031.66;;;12.07;85.44
28448;BME280;15675;52.870;-1.416;2023-02-19T13:55:43;102020.72;;;11.81;85.97
28448;BME280;15675;52.870;-1.416;2023-02-19T14:01:16;102007.56;;;12.18;85.86
28448;BME280;15675;52.870;-1.416;2023-02-19T14:04:14;102004.84;;;12.65;84.64
28448;BME280;15675;52.870;-1.416;2023-02-19T14:14:48;101972.59;;;12.03;82.49
28448;BME280;15675;52.870;-1.416;2023-02-19T14:17:39;101955.06;;;12.45;82.90
28448;BME280;15675;52.870;-1.416;2023-02-19T14:30:49;101925.63;;;12.49;80.12
28448;BME280;15675;52.870;-1.416;2023-02-19T14:33:17;101917.56;;;12.34;79.73
28448;BME280;15675;52.870;-1.416;2023-02-19T14:35:45;101911.91;;;12.63;79.94
28448;BME280;15675;52.870;-1.416;2023-02-19T14:38:19;101904.75;;;12.46;79.67
28448;BME280;15675;52.870;-1.416;2023-02-19T14:40:46;101913.28;;;12.37;79.45
28448;BME280;15675;52.870;-1.416;2023-02-19T14:43:15;101917.53;;;12.32;79.33
28448;BME280;15675;52.870;-1.416;2023-02-19T14:45:55;101917.59;;;12.35;80.58
28448;BME280;15675;52.870;-1.416;2023-02-19T14:48:29;101908.72;;;12.22;80.67
28448;BME280;15675;52.870;-1.416;2023-02-19T14:51:02;101909.72;;;12.31;80.91
28448;BME280;15675;52.870;-1.416;2023-02-19T14:53:29;101918.78;;;12.57;80.24
28448;BME280;15675;52.870;-1.416;2023-02-19T14:55:58;101916.03;;;12.47;79.73
28448;BME280;15675;52.870;-1.416;2023-02-19T14:58:30;101917.34;;;12.80;78.77
28448;BME280;15675;52.870;-1.416;2023-02-19T15:00:56;101917.59;;;12.98;78.14
28448;BME280;15675;52.870;-1.416;2023-02-19T15:06:12;101920.78;;;12.75;77.62
28448;BME280;15675;52.870;-1.416;2023-02-19T15:08:49;101922.69;;;12.89;78.91
28448;BME280;15675;52.870;-1.416;2023-02-19T15:11:18;101914.72;;;12.76;78.49
28448;BME280;15675;52.870;-1.416;2023-02-19T15:14:05;101917.38;;;12.81;78.53
28448;BME280;15675;52.870;-1.416;2023-02-19T15:16:33;101914.13;;;12.99;78.30